createdAt,value
2022-08-14T00:01:02.711Z,22.85
2022-08-14T00:03:37.378Z,22.86
2022-08-14T00:06:14.031Z,22.85
2022-08-14T00:08:52.432Z,22.85
2022-08-14T00:11:19.573Z,22.86
2022-08-14T00:13:51.799Z,22.85
2022-08-14T00:16:40.992Z,22.85
2022-08-14T00:19:18.680Z,22.85
2022-08-14T00:21:50.005Z,22.84
2022-08-14T00:24:22.892Z,22.85
2022-08-14T00:26:55.329Z,22.82
2022-08-14T00:29:21.871Z,22.81
2022-08-14T00:31:55.970Z,22.81
2022-08-14T00:34:36.041Z,22.80
2022-08-14T00:37:05.226Z,22.80
2022-08-14T00:39:32.079Z,22.77
2022-08-14T00:41:58.907Z,22.77
2022-08-14T00:44:32.087Z,22.78
2022-08-14T00:46:59.434Z,22.77
2022-08-14T00:49:26.190Z,22.77
2022-08-14T00:51:53.232Z,22.78
2022-08-14T00:54:22.205Z,22.77
2022-08-14T00:56:50.857Z,22.76
2022-08-14T00:59:22.563Z,22.76
2022-08-14T01:01:49.357Z,22.77
2022-08-14T01:04:51.546Z,22.76
2022-08-14T01:07:05.016Z,22.77
2022-08-14T01:09:36.660Z,22.76
2022-08-14T01:12:04.514Z,22.75
2022-08-14T01:14:31.220Z,22.76
2022-08-14T01:16:57.953Z,22.76
2022-08-14T01:19:26.573Z,22.75
2022-08-14T01:21:54.660Z,22.75
2022-08-14T01:24:24.662Z,22.74
2022-08-14T01:26:57.869Z,22.74
2022-08-14T01:29:58.171Z,22.73
2022-08-14T01:32:15.655Z,22.72
2022-08-14T01:35:17.635Z,22.73
2022-08-14T01:37:38.002Z,22.73
2022-08-14T01:40:11.487Z,22.71
2022-08-14T01:42:42.485Z,22.71
2022-08-14T01:45:11.156Z,22.73
2022-08-14T01:47:38.403Z,22.71
2022-08-14T01:50:05.834Z,22.70
2022-08-14T01:52:59.400Z,22.70
2022-08-14T01:55:22.782Z,22.69
2022-08-14T01:58:18.707Z,22.68
2022-08-14T02:00:36.362Z,22.68
2022-08-14T02:03:04.293Z,22.69
2022-08-14T02:05:35.716Z,22.70
2022-08-14T02:08:08.853Z,22.71
2022-08-14T02:10:46.478Z,22.71
2022-08-14T02:13:16.180Z,22.70
2022-08-14T02:15:43.820Z,22.70
2022-08-14T02:18:11.855Z,22.70
2022-08-14T02:20:41.635Z,22.69
2022-08-14T02:23:08.678Z,22.69
2022-08-14T02:25:35.769Z,22.69
2022-08-14T02:28:24.169Z,22.69
2022-08-14T02:30:52.357Z,22.69
2022-08-14T02:33:19.515Z,22.71
2022-08-14T02:35:52.935Z,22.71
2022-08-14T02:38:30.413Z,22.69
2022-08-14T02:41:01.834Z,22.72
2022-08-14T02:43:36.938Z,22.72
2022-08-14T02:46:12.921Z,22.73
2022-08-14T02:49:03.009Z,22.74
2022-08-14T02:51:30.494Z,22.75
2022-08-14T02:53:57.295Z,22.74
2022-08-14T02:56:29.969Z,22.74
2022-08-14T02:59:12.693Z,22.72
2022-08-14T03:01:43.939Z,22.71
2022-08-14T03:04:17.587Z,22.71
2022-08-14T03:06:57.112Z,22.70
2022-08-14T03:09:41.645Z,22.70
2022-08-14T03:12:09.129Z,22.70
2022-08-14T03:14:37.055Z,22.71
2022-08-14T03:17:03.648Z,22.70
2022-08-14T03:19:30.129Z,22.71
2022-08-14T03:21:56.987Z,22.71
2022-08-14T03:24:23.897Z,22.71
2022-08-14T03:26:57.302Z,22.71
2022-08-14T03:29:26.361Z,22.71
2022-08-14T03:31:54.732Z,22.71
2022-08-14T03:34:24.708Z,22.70
2022-08-14T03:37:50.798Z,22.70
2022-08-14T03:39:55.753Z,22.71
2022-08-14T03:42:22.250Z,22.73
2022-08-14T03:45:26.539Z,22.74
2022-08-14T03:47:46.429Z,22.74
2022-08-14T03:50:31.073Z,22.74
2022-08-14T03:53:00.469Z,22.73
2022-08-14T03:55:27.810Z,22.73
2022-08-14T03:57:54.501Z,22.73
2022-08-14T04:00:44.450Z,22.74
2022-08-14T04:03:10.297Z,22.73
2022-08-14T04:05:42.606Z,22.74
2022-08-14T04:08:29.314Z,22.71
2022-08-14T04:10:56.467Z,22.71
2022-08-14T04:13:24.036Z,22.74
2022-08-14T04:16:01.274Z,22.74
2022-08-14T04:18:30.220Z,22.74
2022-08-14T04:20:56.696Z,22.75
2022-08-14T04:23:29.882Z,22.76
2022-08-14T04:26:00.105Z,22.77
2022-08-14T04:29:06.767Z,22.76
2022-08-14T04:31:15.324Z,22.76
2022-08-14T04:33:43.986Z,22.76
2022-08-14T04:36:15.820Z,22.76
2022-08-14T04:38:43.964Z,22.75
2022-08-14T04:41:13.888Z,22.76
2022-08-14T04:43:41.466Z,22.78
2022-08-14T04:46:09.984Z,22.76
2022-08-14T04:48:51.106Z,22.77
2022-08-14T04:51:23.398Z,22.78
2022-08-14T04:53:50.189Z,22.78
2022-08-14T04:59:03.713Z,22.79
2022-08-14T05:01:40.015Z,22.80
2022-08-14T05:04:07.264Z,22.81
2022-08-14T05:11:32.929Z,22.80
2022-08-14T05:14:17.109Z,22.80
2022-08-14T05:16:49.439Z,22.81
2022-08-14T05:19:26.618Z,22.82
2022-08-14T05:22:00.942Z,22.81
2022-08-14T05:24:36.080Z,22.82
2022-08-14T05:27:04.218Z,22.82
2022-08-14T05:29:30.706Z,22.83
2022-08-14T05:31:57.212Z,22.83
2022-08-14T05:34:28.899Z,22.81
2022-08-14T05:37:02.195Z,22.82
2022-08-14T05:39:30.995Z,22.81
2022-08-14T05:41:58.092Z,22.82
2022-08-14T05:44:29.536Z,22.84
2022-08-14T05:46:56.645Z,22.85
2022-08-14T05:49:23.257Z,22.85
2022-08-14T05:52:01.788Z,22.85
2022-08-14T05:54:35.164Z,22.86
2022-08-14T05:57:02.581Z,22.85
2022-08-14T05:59:39.385Z,22.85
2022-08-14T06:02:06.551Z,22.85
2022-08-14T06:04:33.037Z,22.85
2022-08-14T06:07:00.781Z,22.85
2022-08-14T06:09:28.452Z,22.85
2022-08-14T06:12:02.453Z,22.86
2022-08-14T06:14:28.970Z,22.85
2022-08-14T06:16:55.450Z,22.86
2022-08-14T06:19:23.268Z,22.87
2022-08-14T06:21:54.499Z,22.86
2022-08-14T06:24:30.720Z,22.86
2022-08-14T06:27:04.708Z,22.88
2022-08-14T06:29:34.708Z,22.87
2022-08-14T06:32:36.478Z,22.87
2022-08-14T06:35:04.521Z,22.88
2022-08-14T06:37:39.652Z,22.89
2022-08-14T06:40:25.662Z,22.89
2022-08-14T06:42:54.911Z,22.89
2022-08-14T06:45:21.503Z,22.90
2022-08-14T06:47:53.402Z,22.89
2022-08-14T06:50:21.731Z,22.90
2022-08-14T06:52:55.076Z,22.90
2022-08-14T06:55:26.103Z,22.90
2022-08-14T06:57:55.095Z,22.91
2022-08-14T07:00:27.195Z,22.92
2022-08-14T07:02:57.596Z,22.92
2022-08-14T07:05:24.266Z,22.91
2022-08-14T07:07:51.284Z,22.91
2022-08-14T07:10:17.849Z,22.92
2022-08-14T07:13:01.051Z,22.93
2022-08-14T07:15:29.060Z,22.92
2022-08-14T07:17:55.715Z,22.95
2022-08-14T07:20:31.271Z,22.93
2022-08-14T07:23:02.479Z,22.94
2022-08-14T07:25:37.618Z,22.94
2022-08-14T07:28:12.694Z,22.94
2022-08-14T07:30:42.082Z,22.94
2022-08-14T07:33:20.710Z,22.93
2022-08-14T07:35:58.421Z,22.94
2022-08-14T07:38:26.161Z,22.94
2022-08-14T07:40:54.067Z,22.95
2022-08-14T07:43:23.812Z,22.96
2022-08-14T07:45:50.711Z,22.97
2022-08-14T07:48:19.403Z,22.98
2022-08-14T07:50:52.047Z,22.98
2022-08-14T07:53:19.122Z,22.98
2022-08-14T07:55:46.109Z,23.00
2022-08-14T07:58:34.096Z,22.98
2022-08-14T08:01:01.754Z,22.99
2022-08-14T08:03:33.194Z,23.00
2022-08-14T08:06:01.165Z,23.01
2022-08-14T08:08:31.257Z,23.01
2022-08-14T08:11:03.202Z,23.02
2022-08-14T08:13:33.520Z,23.02
2022-08-14T08:16:00.509Z,23.03
2022-08-14T08:18:30.916Z,23.03
2022-08-14T08:20:59.416Z,23.05
2022-08-14T08:23:30.263Z,23.03
2022-08-14T08:26:14.548Z,23.06
2022-08-14T08:28:43.861Z,23.07
2022-08-14T08:31:10.735Z,23.07
2022-08-14T08:33:38.297Z,23.06
2022-08-14T08:36:12.717Z,23.06
2022-08-14T08:39:17.342Z,23.07
2022-08-14T08:41:26.292Z,23.06
2022-08-14T08:44:03.829Z,23.07
2022-08-14T08:46:32.463Z,23.07
2022-08-14T08:49:03.870Z,23.08
2022-08-14T08:51:35.565Z,23.07
2022-08-14T08:54:04.373Z,23.07
2022-08-14T08:56:39.694Z,23.08
2022-08-14T08:59:30.887Z,23.09
2022-08-14T09:02:00.816Z,23.10
2022-08-14T09:04:28.865Z,23.10
2022-08-14T09:07:09.288Z,23.09
2022-08-14T09:09:54.249Z,23.10
2022-08-14T09:12:24.310Z,23.13
2022-08-14T09:14:52.108Z,23.12
2022-08-14T09:17:19.005Z,23.12
2022-08-14T09:19:47.743Z,23.10
2022-08-14T09:22:36.070Z,23.12
2022-08-14T09:25:01.062Z,23.14
2022-08-14T09:27:28.455Z,23.15
2022-08-14T09:29:56.465Z,23.15
2022-08-14T09:32:58.289Z,23.16
2022-08-14T09:35:28.450Z,23.16
2022-08-14T09:38:03.182Z,23.16
2022-08-14T09:40:47.777Z,23.17
2022-08-14T09:43:27.113Z,23.17
2022-08-14T09:45:56.273Z,23.18
2022-08-14T09:48:29.895Z,23.17
2022-08-14T09:54:17.883Z,23.18
2022-08-14T09:56:30.544Z,23.18
2022-08-14T09:59:09.435Z,23.16
2022-08-14T10:01:37.645Z,23.17
2022-08-14T10:04:33.016Z,23.17
2022-08-14T10:07:01.727Z,23.19
2022-08-14T10:09:33.548Z,23.17
2022-08-14T10:12:04.585Z,23.17
2022-08-14T10:14:35.890Z,23.17
2022-08-14T10:17:07.029Z,23.17
2022-08-14T10:19:36.487Z,23.17
2022-08-14T10:23:13.006Z,23.18
2022-08-14T10:24:51.714Z,23.16
2022-08-14T10:27:20.056Z,23.18
2022-08-14T10:29:49.073Z,23.19
2022-08-14T10:32:17.244Z,23.19
2022-08-14T10:34:46.151Z,23.19
2022-08-14T10:37:15.138Z,23.20
2022-08-14T10:39:46.885Z,23.20
2022-08-14T10:42:35.417Z,23.21
2022-08-14T10:45:16.914Z,23.20
2022-08-14T10:48:07.126Z,23.21
2022-08-14T10:50:33.507Z,23.19
2022-08-14T10:53:02.990Z,23.18
2022-08-14T10:55:33.011Z,23.21
2022-08-14T10:58:06.266Z,23.21
2022-08-14T11:00:35.856Z,23.21
2022-08-14T11:03:05.936Z,23.22
2022-08-14T11:05:40.464Z,23.23
2022-08-14T11:08:09.229Z,23.23
2022-08-14T11:10:43.284Z,23.23
2022-08-14T11:13:15.060Z,23.23
2022-08-14T11:15:41.736Z,23.23
2022-08-14T11:18:11.932Z,23.23
2022-08-14T11:20:50.261Z,23.22
2022-08-14T11:23:25.361Z,23.24
2022-08-14T11:26:07.837Z,23.24
2022-08-14T11:28:47.381Z,23.24
2022-08-14T11:31:19.278Z,23.23
2022-08-14T11:33:50.460Z,23.24
2022-08-14T11:36:18.878Z,23.25
2022-08-14T11:38:46.622Z,23.26
2022-08-14T11:41:17.076Z,23.25
2022-08-14T11:43:55.984Z,23.26
2022-08-14T11:46:29.560Z,23.25
2022-08-14T11:49:05.230Z,23.21
2022-08-14T11:51:42.898Z,23.21
2022-08-14T11:54:20.380Z,23.21
2022-08-14T11:57:00.651Z,23.23
2022-08-14T11:59:32.857Z,23.24
2022-08-14T12:02:09.101Z,23.24
2022-08-14T12:04:56.802Z,23.24
2022-08-14T12:07:24.616Z,23.24
2022-08-14T12:09:53.701Z,23.23
2022-08-14T12:12:35.772Z,23.24
2022-08-14T12:15:04.343Z,23.24
2022-08-14T12:17:47.320Z,23.24
2022-08-14T12:20:30.283Z,23.22
2022-08-14T12:23:01.021Z,23.22
2022-08-14T12:25:28.326Z,23.22
2022-08-14T12:27:59.389Z,23.23
2022-08-14T12:30:35.961Z,23.24
2022-08-14T12:33:07.635Z,23.25
2022-08-14T12:35:39.617Z,23.24
2022-08-14T12:38:06.809Z,23.26
2022-08-14T12:40:33.338Z,23.24
2022-08-14T12:43:01.420Z,23.25
2022-08-14T12:45:30.983Z,23.25
2022-08-14T12:48:00.362Z,23.23
2022-08-14T12:50:35.993Z,23.22
2022-08-14T12:53:14.597Z,23.22
2022-08-14T12:56:17.736Z,23.22
2022-08-14T12:58:36.525Z,23.23
2022-08-14T13:01:20.989Z,23.23
2022-08-14T13:03:48.173Z,23.25
2022-08-14T13:06:18.893Z,23.25
2022-08-14T13:08:53.045Z,23.23
2022-08-14T13:11:23.844Z,23.25
2022-08-14T13:13:56.704Z,23.24
2022-08-14T13:16:38.079Z,23.23
2022-08-14T13:19:09.749Z,23.22
2022-08-14T13:22:05.090Z,23.21
2022-08-14T13:24:27.631Z,23.21
2022-08-14T13:26:56.055Z,23.20
2022-08-14T13:29:24.341Z,23.20
2022-08-14T13:31:55.084Z,23.22
2022-08-14T13:34:24.433Z,23.22
2022-08-14T13:36:59.152Z,23.23
2022-08-14T13:39:31.745Z,23.22
2022-08-14T13:42:04.040Z,23.23
2022-08-14T13:44:34.788Z,23.24
2022-08-14T13:47:03.895Z,23.22
2022-08-14T13:49:30.431Z,23.22
2022-08-14T13:52:03.260Z,23.21
2022-08-14T13:54:45.177Z,23.22
2022-08-14T13:57:13.874Z,23.21
2022-08-14T13:59:44.791Z,23.21
2022-08-14T14:02:11.914Z,23.21
2022-08-14T14:05:00.850Z,23.22
2022-08-14T14:07:31.961Z,23.24
2022-08-14T14:10:06.471Z,23.22
2022-08-14T14:12:49.104Z,23.22
2022-08-14T14:15:22.811Z,23.22
2022-08-14T14:17:55.865Z,23.22
2022-08-14T14:20:35.368Z,23.22
2022-08-14T14:23:09.337Z,23.20
2022-08-14T14:25:48.140Z,23.20
2022-08-14T14:28:16.855Z,23.20
2022-08-14T14:30:54.358Z,23.21
2022-08-14T14:33:45.204Z,23.21
2022-08-14T14:36:11.571Z,23.21
2022-08-14T14:38:41.139Z,23.22
2022-08-14T14:41:12.279Z,23.22
2022-08-14T14:43:43.537Z,23.22
2022-08-14T14:46:13.302Z,23.21
2022-08-14T14:48:40.498Z,23.22
2022-08-14T14:51:15.356Z,23.21
2022-08-14T14:53:43.836Z,23.20
2022-08-14T14:56:50.840Z,23.21
2022-08-14T14:59:00.072Z,23.20
2022-08-14T15:01:27.238Z,23.21
2022-08-14T15:03:54.688Z,23.21
2022-08-14T15:06:29.002Z,23.22
2022-08-14T15:09:00.021Z,23.22
2022-08-14T15:11:30.047Z,23.23
2022-08-14T15:13:57.780Z,23.23
2022-08-14T15:16:24.885Z,23.22
2022-08-14T15:18:51.584Z,23.21
2022-08-14T15:21:19.615Z,23.19
2022-08-14T15:23:46.259Z,23.20
2022-08-14T15:26:13.364Z,23.20
2022-08-14T15:29:02.025Z,23.21
2022-08-14T15:31:29.920Z,23.20
2022-08-14T15:34:13.426Z,23.19
2022-08-14T15:36:44.314Z,23.20
2022-08-14T15:39:12.662Z,23.19
2022-08-14T15:41:42.175Z,23.20
2022-08-14T15:44:25.234Z,23.21
2022-08-14T15:46:53.917Z,23.21
2022-08-14T15:49:21.978Z,23.21
2022-08-14T15:51:48.427Z,23.20
2022-08-14T15:54:17.707Z,23.19
2022-08-14T15:56:57.042Z,23.20
2022-08-14T15:59:27.096Z,23.19
2022-08-14T16:01:55.101Z,23.18
2022-08-14T16:04:22.058Z,23.18
2022-08-14T16:06:51.808Z,23.18
2022-08-14T16:09:21.906Z,23.19
2022-08-14T16:11:53.726Z,23.19
2022-08-14T16:14:21.518Z,23.18
2022-08-14T16:17:00.360Z,23.19
2022-08-14T16:19:28.341Z,23.18
2022-08-14T16:22:56.789Z,23.17
2022-08-14T16:25:02.259Z,23.17
2022-08-14T16:27:37.114Z,23.18
2022-08-14T16:30:07.976Z,23.17
2022-08-14T16:32:54.527Z,23.16
2022-08-14T16:35:22.908Z,23.17
2022-08-14T16:37:49.766Z,23.18
2022-08-14T16:40:16.602Z,23.16
2022-08-14T16:43:04.790Z,23.16
2022-08-14T16:45:31.037Z,23.16
2022-08-14T16:48:01.455Z,23.16
2022-08-14T16:50:43.063Z,23.18
2022-08-14T16:53:11.149Z,23.15
2022-08-14T16:55:53.440Z,23.15
2022-08-14T16:58:29.883Z,23.15
2022-08-14T17:01:24.479Z,23.14
2022-08-14T17:03:55.007Z,23.14
2022-08-14T17:06:36.303Z,23.16
2022-08-14T17:09:03.695Z,23.18
2022-08-14T17:11:32.731Z,23.17
2022-08-14T17:14:05.762Z,23.16
2022-08-14T17:16:37.533Z,23.16
2022-08-14T17:19:13.403Z,23.15
2022-08-14T17:21:42.269Z,23.16
2022-08-14T17:24:57.289Z,23.15
2022-08-14T17:27:04.469Z,23.14
2022-08-14T17:29:34.170Z,23.15
2022-08-14T17:32:06.773Z,23.15
2022-08-14T17:34:51.933Z,23.15
2022-08-14T17:37:28.638Z,23.17
2022-08-14T17:40:15.215Z,23.15
2022-08-14T17:42:53.623Z,23.16
2022-08-14T17:45:26.926Z,23.16
2022-08-14T17:47:57.173Z,23.14
2022-08-14T17:51:00.509Z,23.16
2022-08-14T17:53:30.564Z,23.15
2022-08-14T17:56:01.349Z,23.15
2022-08-14T17:58:41.663Z,23.15
2022-08-14T18:01:13.086Z,23.16
2022-08-14T18:03:50.695Z,23.15
2022-08-14T18:06:38.349Z,23.16
2022-08-14T18:09:25.234Z,23.16
2022-08-14T18:11:53.771Z,23.14
2022-08-14T18:14:32.450Z,23.14
2022-08-14T18:17:08.906Z,23.13
2022-08-14T18:19:37.237Z,23.13
2022-08-14T18:22:24.069Z,23.14
2022-08-14T18:24:57.082Z,23.14
2022-08-14T18:27:37.487Z,23.13
2022-08-14T18:30:33.502Z,23.10
2022-08-14T18:32:55.604Z,23.10
2022-08-14T18:35:45.432Z,23.11
2022-08-14T18:38:25.534Z,23.10
2022-08-14T18:40:54.749Z,23.10
2022-08-14T18:43:41.716Z,23.11
2022-08-14T18:46:08.716Z,23.10
2022-08-14T18:49:13.867Z,23.09
2022-08-14T18:51:45.893Z,23.06
2022-08-14T18:54:32.777Z,23.08
2022-08-14T18:57:01.447Z,23.08
2022-08-14T18:59:29.663Z,23.08
2022-08-14T19:02:31.653Z,23.07
2022-08-14T19:05:02.427Z,23.07
2022-08-14T19:07:33.931Z,23.06
2022-08-14T19:10:05.329Z,23.07
2022-08-14T19:13:01.679Z,23.06
2022-08-14T19:15:31.840Z,23.06
2022-08-14T19:18:14.674Z,23.05
2022-08-14T19:20:48.187Z,23.03
2022-08-14T19:23:17.416Z,23.03
2022-08-14T19:25:53.227Z,23.03
2022-08-14T19:28:30.984Z,23.04
2022-08-14T19:31:37.214Z,23.06
2022-08-14T19:34:09.526Z,23.06
2022-08-14T19:37:05.686Z,23.03
2022-08-14T19:39:48.117Z,23.03
2022-08-14T19:42:28.241Z,23.04
2022-08-14T19:44:57.427Z,23.02
2022-08-14T19:47:38.672Z,23.03
2022-08-14T19:50:38.102Z,23.02
2022-08-14T19:53:11.170Z,23.01
2022-08-14T19:55:39.655Z,23.00
2022-08-14T19:58:13.594Z,22.99
2022-08-14T20:00:52.170Z,23.00
2022-08-14T20:03:24.155Z,22.98
2022-08-14T20:05:58.067Z,23.00
2022-08-14T20:11:02.524Z,23.00
2022-08-14T20:12:00.309Z,23.00
2022-08-14T20:14:20.937Z,23.01
2022-08-14T20:17:00.573Z,23.00
2022-08-14T20:19:33.222Z,23.00
2022-08-14T20:22:35.879Z,23.00
2022-08-14T20:24:54.019Z,23.00
2022-08-14T20:27:33.236Z,22.99
2022-08-14T20:30:29.041Z,22.98
2022-08-14T20:32:55.955Z,22.98
2022-08-14T20:35:35.830Z,22.98
2022-08-14T20:38:31.233Z,22.98
2022-08-14T20:40:54.742Z,22.99
2022-08-14T20:43:25.281Z,22.99
2022-08-14T20:45:57.733Z,22.99
2022-08-14T20:48:50.696Z,22.99
2022-08-14T20:51:21.116Z,22.98
2022-08-14T20:53:59.728Z,22.96
2022-08-14T20:56:28.339Z,22.96
2022-08-14T20:58:56.981Z,22.95
2022-08-14T21:01:38.375Z,22.97
2022-08-14T21:04:21.303Z,22.97
2022-08-14T21:07:26.043Z,22.95
2022-08-14T21:10:05.373Z,22.95
2022-08-14T21:12:34.887Z,22.95
2022-08-14T21:15:03.642Z,22.96
2022-08-14T21:17:37.556Z,22.95
2022-08-14T21:20:25.260Z,22.95
2022-08-14T21:22:51.967Z,22.94
2022-08-14T21:25:20.784Z,22.93
2022-08-14T21:27:56.561Z,22.94
2022-08-14T21:30:51.826Z,22.94
2022-08-14T21:33:12.440Z,22.94
2022-08-14T21:35:41.800Z,22.95
2022-08-14T21:38:08.572Z,22.94
2022-08-14T21:40:47.357Z,22.93
2022-08-14T21:43:18.556Z,22.94
2022-08-14T21:45:53.871Z,22.94
2022-08-14T21:48:25.277Z,22.93
2022-08-14T21:51:01.502Z,22.93
2022-08-14T21:53:59.260Z,22.89
2022-08-14T21:56:37.420Z,22.89
2022-08-14T21:59:09.538Z,22.90
2022-08-14T22:02:00.123Z,22.92
2022-08-14T22:04:34.404Z,22.90
2022-08-14T22:07:01.958Z,22.90
2022-08-14T22:09:36.364Z,22.91
2022-08-14T22:12:06.788Z,22.90
2022-08-14T22:14:34.319Z,22.90
2022-08-14T22:17:16.466Z,22.87
2022-08-14T22:19:54.424Z,22.87
2022-08-14T22:22:22.493Z,22.87
2022-08-14T22:24:53.303Z,22.87
2022-08-14T22:27:21.186Z,22.86
2022-08-14T22:29:55.007Z,22.87
2022-08-14T22:32:26.014Z,22.90
2022-08-14T22:35:05.002Z,22.87
2022-08-14T22:37:35.782Z,22.89
2022-08-14T22:40:54.708Z,22.87
2022-08-14T22:43:00.131Z,22.87
2022-08-14T22:45:36.291Z,22.84
2022-08-14T22:48:05.118Z,22.82
2022-08-14T22:50:48.781Z,22.81
2022-08-14T22:53:15.798Z,22.82
2022-08-14T22:55:43.267Z,22.82
2022-08-14T22:58:10.991Z,22.84
2022-08-14T23:00:44.817Z,22.86
2022-08-14T23:03:17.174Z,22.84
2022-08-14T23:05:52.606Z,22.85
2022-08-14T23:09:02.191Z,22.84
2022-08-14T23:11:08.515Z,22.83
2022-08-14T23:13:35.018Z,22.82
2022-08-14T23:16:06.235Z,22.82
2022-08-14T23:18:32.774Z,22.81
2022-08-14T23:21:01.106Z,22.77
2022-08-14T23:23:27.624Z,22.80
2022-08-14T23:26:00.109Z,22.77
2022-08-14T23:28:56.583Z,22.80
2022-08-14T23:31:34.786Z,22.80
2022-08-14T23:34:06.977Z,22.80
2022-08-14T23:36:37.964Z,22.78
2022-08-14T23:39:24.538Z,22.80
2022-08-14T23:41:55.843Z,22.78
2022-08-14T23:44:24.136Z,22.77
2022-08-14T23:46:52.714Z,22.75
2022-08-14T23:49:24.418Z,22.75
2022-08-14T23:52:49.404Z,22.73
2022-08-14T23:54:47.315Z,22.76
2022-08-14T23:57:16.009Z,22.76
2022-08-14T23:59:54.863Z,22.76
